Карточка аэропорта UWGG

Внимание!
Информация на этой странице в стадии наполнения.
Если вы не увидели какой-то информации, или заметили неточность - пожалуйста сообщите нам!
Спасибо!
Команда RU-STAFF
Название аэропортаСтригино
Название аэропорта (англ.)Strigino
Превышение256 ft. (78 m.)
Координаты56°13.8', 43°47.202'
Высота перехода5000 ft
Эшелон переходаQNH>=1013hPa:FL060; QNH<1013hPa:FL070; QNH<977hPa:FL080
Коды ответчика2120-2147
Зона ОрВДМосква РПИ (UUWV)
Данные METARUWGG 172000Z 14003MPS 9999 SCT007 19/18 Q1012 R18L/290050 NOSIG
Проноз погоды (TAF)UWGG 171658Z 1718/1818 09003G08MPS 8000 SCT030 TX28/1812Z TN17/1803Z TEMPO 1718/1724 BKN013 TEMPO 1803/1818 15008G14MPS -TSRA BKN016CB
NOTAMshow/hide NOTAM
AWOS   TABLE

Информация о ВПП

ВПП Длина ВПП (м.) Покрытие Курс ВПП Частота ILS
18L3000Цементобетон179108.1
36R3000Цементобетон359110.5
18R2806Асфальтобетон179109.9
36L2806Асфальтобетон359109.5

Диспетчерские позиции

Позывной Наименование органа УВД Частота
UWGG_TWRНижний-Вышка120.400
UWGG_R_APPНижний-Круг120.800
UWGG_GNDНижний-Руление121.800
UWGG_APPНижний-Подход124.700



Спутниковое изображение